Time;durP1;ratioP1;P1;durP2;ratioP2;P2;SDS_P1;SDS_P2;PMS_P1;PMS_P2;Temp;Humidity;BMP_temperature;BMP_pressure;BME280_temperature;BME280_humidity;BME280_pressure;Samples;Min_cycle;Max_cycle;Signal;HPM_P1;HPM_P2
2021/12/17 00:00:06;;;;;;;6.30;3.50;;;;;;;8.12;86.58;100215.10;1713075;81;21019;-65
2021/12/17 00:05:10;;;;;;;5.95;3.33;;;;;;;8.12;84.15;100213.00;1713877;81;21140;-63
2021/12/17 00:07:35;;;;;;;6.83;3.92;;;;;;;8.11;84.22;100221.28;1713674;81;21054;-62
2021/12/17 00:10:05;;;;;;;7.08;4.05;;;;;;;7.95;85.81;100220.81;1713451;81;21067;-63
2021/12/17 00:12:34;;;;;;;7.35;4.12;;;;;;;8.07;87.08;100208.78;1685678;81;21018;-61
2021/12/17 00:15:02;;;;;;;7.47;4.08;;;;;;;8.06;87.35;100206.67;1713663;81;21140;-60
2021/12/17 00:17:35;;;;;;;5.90;3.35;;;;;;;8.00;87.85;100204.77;1714340;81;21550;-63
2021/12/17 00:20:29;;;;;;;6.70;3.87;;;;;;;7.97;88.18;100194.22;1712345;82;20991;-63
2021/12/17 00:52:39;;;;;;;6.97;3.92;;;;;;;8.04;88.20;100178.30;1651228;85;21483;-61
2021/12/17 00:55:07;;;;;;;7.10;4.25;;;;;;;7.86;89.98;100184.20;1656881;85;21000;-62
2021/12/17 00:57:39;;;;;;;7.78;4.05;;;;;;;7.46;95.24;100179.44;1658605;86;21134;-62
2021/12/17 01:00:13;;;;;;;7.75;3.85;;;;;;;7.59;95.32;100165.14;1658272;86;20955;-61
2021/12/17 01:02:40;;;;;;;10.95;4.40;;;;;;;7.84;92.66;100156.33;1659356;86;21080;-61
2021/12/17 01:05:12;;;;;;;9.35;3.77;;;;;;;7.91;91.85;100149.45;1661336;86;21465;-65
2021/12/17 01:07:44;;;;;;;11.57;3.60;;;;;;;8.17;88.74;100140.59;1659027;86;21083;-67
2021/12/17 01:10:19;;;;;;;8.53;3.42;;;;;;;8.22;87.75;100147.38;1659274;86;21154;-62
2021/12/17 01:12:48;;;;;;;8.23;3.58;;;;;;;8.68;82.30;100148.28;1650951;86;20992;-64
2021/12/17 01:15:18;;;;;;;5.12;2.60;;;;;;;8.37;83.38;100144.86;1654218;86;21549;-62
2021/12/17 01:17:52;;;;;;;6.50;3.00;;;;;;;8.03;87.33;100135.16;1647517;86;22504;-63
2021/12/17 01:23:18;;;;;;;12.45;4.05;;;;;;;8.41;85.02;100124.92;1659178;86;21227;-64
2021/12/17 01:42:40;;;;;;;19.75;7.17;;;;;;;8.16;86.90;100072.28;1634094;86;21654;-62
2021/12/17 01:45:08;;;;;;;11.53;4.08;;;;;;;8.00;89.46;100063.30;1658491;86;21483;-66
2021/12/17 01:47:35;;;;;;;13.78;4.92;;;;;;;7.98;91.15;100056.16;1658972;86;20997;-61
2021/12/17 02:00:55;;;;;;;8.18;4.87;;;;;;;8.18;93.30;100042.23;1678230;85;21096;-65
2021/12/17 02:03:24;;;;;;;6.00;3.47;;;;;;;8.10;93.88;100041.00;1679019;85;20956;-64
2021/12/17 02:05:51;;;;;;;7.70;4.05;;;;;;;8.28;92.48;100038.94;1678168;85;21650;-63
2021/12/17 02:08:18;;;;;;;8.10;3.60;;;;;;;7.94;96.12;100032.83;1677990;85;21071;-64
2021/12/17 02:32:18;;;;;;;7.95;3.75;;;;;;;8.62;85.61;99994.37;1679135;85;21346;-65
2021/12/17 02:37:17;;;;;;;6.70;3.90;;;;;;;8.88;83.67;99992.66;1679011;85;21282;-65
2021/12/17 02:47:43;;;;;;;7.37;3.92;;;;;;;9.18;80.23;99991.37;1678939;85;21113;-63
2021/12/17 02:50:11;;;;;;;10.53;3.85;;;;;;;8.97;82.21;99988.97;1678484;85;21063;-65
2021/12/17 02:52:40;;;;;;;6.97;4.05;;;;;;;8.83;82.97;99991.09;1679174;85;21130;-64
2021/12/17 02:55:07;;;;;;;7.40;4.10;;;;;;;9.10;79.62;99984.47;1681996;84;21803;-62
2021/12/17 02:57:34;;;;;;;6.70;3.70;;;;;;;9.09;79.82;99980.73;1706856;82;20923;-64
2021/12/17 03:00:05;;;;;;;9.60;4.67;;;;;;;9.35;77.29;99972.45;1670015;85;21071;-62
2021/12/17 03:02:33;;;;;;;10.70;5.40;;;;;;;9.55;73.55;99970.11;1738224;82;20988;-62
2021/12/17 03:05:00;;;;;;;7.60;4.47;;;;;;;9.49;73.41;99962.03;1738699;82;21616;-62
2021/12/17 03:07:26;;;;;;;8.13;5.15;;;;;;;9.56;72.97;99973.02;1738119;82;22124;-64
2021/12/17 03:10:06;;;;;;;8.78;4.92;;;;;;;9.67;71.39;99971.23;1709607;82;21076;-62
2021/12/17 03:12:39;;;;;;;9.55;5.30;;;;;;;10.02;68.48;99962.27;1737347;82;20964;-63
2021/12/17 03:15:14;;;;;;;13.32;6.92;;;;;;;9.07;75.03;99967.12;1737607;82;21703;-62
2021/12/17 03:25:38;;;;;;;8.58;4.72;;;;;;;9.78;73.87;99960.84;1738428;82;21560;-62
2021/12/17 03:28:05;;;;;;;8.40;4.53;;;;;;;9.67;72.81;99951.72;1738498;82;20956;-63
2021/12/17 03:30:35;;;;;;;7.85;4.58;;;;;;;9.58;73.69;99954.11;1737988;82;20984;-64
2021/12/17 03:33:03;;;;;;;9.05;4.78;;;;;;;9.73;71.95;99947.06;1738233;82;21166;-63
2021/12/17 03:35:32;;;;;;;9.68;5.30;;;;;;;9.47;73.11;99944.51;1711308;82;21047;-62
2021/12/17 03:38:00;;;;;;;7.22;4.03;;;;;;;9.06;76.85;99938.21;1738404;82;20905;-63
2021/12/17 03:40:31;;;;;;;6.37;3.70;;;;;;;9.30;76.96;99932.69;1711893;82;21046;-62
2021/12/17 03:43:02;;;;;;;7.10;4.30;;;;;;;9.49;74.40;99928.70;1737815;82;20912;-63
2021/12/17 03:45:26;;;;;;;7.22;4.05;;;;;;;9.21;74.22;99935.91;1711406;82;21119;-63
2021/12/17 03:47:57;;;;;;;7.10;3.47;;;;;;;9.38;71.92;99939.09;1738079;82;20997;-64
2021/12/17 03:50:25;;;;;;;7.20;4.72;;;;;;;9.37;72.42;99937.48;1738228;82;21226;-67
2021/12/17 03:52:53;;;;;;;8.00;4.25;;;;;;;9.49;72.60;99945.61;1739202;82;21023;-64
2021/12/17 03:55:23;;;;;;;8.58;4.92;;;;;;;9.51;72.06;99944.95;1746168;81;21072;-64
2021/12/17 03:57:52;;;;;;;6.70;3.95;;;;;;;9.62;70.48;99938.44;1681447;84;21550;-68
2021/12/17 04:00:19;;;;;;;7.00;4.40;;;;;;;9.63;70.39;99937.47;1684681;79;20960;-63
2021/12/17 04:02:48;;;;;;;7.83;4.37;;;;;;;9.29;73.14;99940.19;1680391;83;21082;-64
2021/12/17 04:05:19;;;;;;;8.00;4.85;;;;;;;9.59;72.56;99932.32;1688809;83;21042;-65
2021/12/17 04:07:51;;;;;;;7.25;3.95;;;;;;;9.50;72.93;99929.81;1686153;83;21027;-64
2021/12/17 04:10:22;;;;;;;6.50;3.98;;;;;;;9.52;74.23;99916.63;1716931;81;21159;-67
2021/12/17 04:13:12;;;;;;;10.80;6.55;;;;;;;9.81;71.11;99916.20;1720147;81;21069;-65
2021/12/17 04:15:35;;;;;;;9.70;5.33;;;;;;;9.90;70.60;99915.91;1696748;81;20997;-64
2021/12/17 04:17:59;;;;;;;8.98;5.62;;;;;;;10.19;67.93;99915.42;1720051;81;21062;-67
2021/12/17 04:20:26;;;;;;;10.65;6.62;;;;;;;10.00;68.44;99915.59;1722460;81;20970;-64
2021/12/17 04:22:53;;;;;;;9.18;6.00;;;;;;;10.02;68.20;99924.02;1722050;81;21572;-65
2021/12/17 04:25:20;;;;;;;8.78;5.78;;;;;;;10.14;67.90;99934.22;1722653;81;20934;-65
2021/12/17 04:27:47;;;;;;;9.13;5.62;;;;;;;10.28;67.10;99929.16;1716851;81;20883;-67
2021/12/17 04:30:15;;;;;;;7.87;5.22;;;;;;;9.01;81.90;99938.23;1716921;81;21099;-61
2021/12/17 04:32:44;;;;;;;9.33;4.78;;;;;;;9.33;77.17;99938.84;1720647;81;20974;-62
2021/12/17 04:35:11;;;;;;;7.80;4.97;;;;;;;9.48;72.98;99939.61;1696141;83;21200;-61
2021/12/17 04:37:40;;;;;;;10.28;5.50;;;;;;;8.87;84.89;99938.27;1720878;81;21073;-68
2021/12/17 04:40:09;;;;;;;9.55;5.58;;;;;;;9.19;76.94;99938.36;1720837;81;21021;-62
2021/12/17 04:42:56;;;;;;;8.90;5.15;;;;;;;9.57;73.94;99942.09;1716103;81;21136;-62
2021/12/17 04:45:13;;;;;;;8.85;5.75;;;;;;;8.99;77.22;99943.31;1718451;81;21696;-62
2021/12/17 04:58:46;;;;;;;12.33;5.90;;;;;;;9.01;77.80;99945.23;1707306;81;21171;-65
2021/12/17 05:01:15;;;;;;;9.93;5.87;;;;;;;9.33;75.82;99940.14;1716591;81;21167;-65
2021/12/17 05:03:44;;;;;;;13.15;7.17;;;;;;;9.34;75.29;99939.64;1733618;81;21064;-66
2021/12/17 05:06:14;;;;;;;9.88;6.25;;;;;;;9.50;73.72;99925.10;1728020;81;20902;-63
2021/12/17 05:08:43;;;;;;;11.05;6.53;;;;;;;9.44;74.05;99930.56;1731568;81;20949;-65
2021/12/17 05:11:22;;;;;;;12.95;6.67;;;;;;;9.84;70.95;99919.73;1733846;81;21110;-64
2021/12/17 05:19:37;;;;;;;10.88;6.92;;;;;;;9.98;70.17;99917.06;1728138;81;21636;-62
2021/12/17 05:21:51;;;;;;;10.98;6.90;;;;;;;10.06;69.52;99925.25;1721214;81;21523;-70
2021/12/17 05:24:19;;;;;;;12.18;7.53;;;;;;;10.36;66.17;99920.70;1733092;81;21064;-69
2021/12/17 05:26:46;;;;;;;12.47;7.87;;;;;;;10.34;66.13;99925.31;1722629;81;21116;-67
2021/12/17 05:29:13;;;;;;;12.53;7.20;;;;;;;10.34;65.53;99912.29;1734222;81;21507;-65
2021/12/17 05:31:42;;;;;;;13.30;8.40;;;;;;;10.47;64.35;99908.45;1733803;81;20949;-68
2021/12/17 05:34:10;;;;;;;13.72;8.78;;;;;;;10.34;65.53;99910.98;1733476;81;20993;-68
2021/12/17 05:36:38;;;;;;;14.28;8.50;;;;;;;10.48;65.03;99903.54;1732421;81;21057;-68
2021/12/17 05:39:17;;;;;;;12.33;8.43;;;;;;;10.03;67.18;99898.77;1734041;81;21152;-66
2021/12/17 05:41:45;;;;;;;12.60;7.83;;;;;;;10.21;66.16;99890.00;1733358;81;21001;-64
2021/12/17 05:44:21;;;;;;;12.00;7.75;;;;;;;10.23;66.39;99895.34;1733678;81;21080;-66
2021/12/17 05:46:49;;;;;;;12.37;6.92;;;;;;;10.12;66.90;99897.16;1723042;81;21182;-65
2021/12/17 05:49:18;;;;;;;14.78;7.35;;;;;;;10.37;65.75;99896.25;1733991;81;20894;-68
2021/12/17 05:51:45;;;;;;;11.10;6.20;;;;;;;10.39;65.18;99891.67;1709119;82;21133;-67
2021/12/17 05:54:13;;;;;;;12.33;7.47;;;;;;;9.95;68.40;99901.81;1733186;81;21296;-71
2021/12/17 05:56:40;;;;;;;10.23;6.67;;;;;;;9.91;69.28;99905.78;1733902;81;21341;-69
2021/12/17 05:59:09;;;;;;;12.33;7.78;;;;;;;9.90;69.56;99904.19;1733846;81;21057;-66
2021/12/17 06:01:36;;;;;;;13.03;8.35;;;;;;;9.86;70.28;99902.95;1734246;81;21056;-67
2021/12/17 06:04:04;;;;;;;15.40;7.33;;;;;;;9.81;72.02;99892.77;1735356;81;21084;-67
2021/12/17 06:06:37;;;;;;;12.47;7.10;;;;;;;9.59;73.25;99891.98;1735744;81;20957;-67
2021/12/17 06:09:07;;;;;;;12.63;7.42;;;;;;;9.77;73.78;99887.63;1735507;81;20985;-66
2021/12/17 06:11:34;;;;;;;13.20;8.48;;;;;;;9.75;74.82;99894.34;1706268;81;21001;-68
2021/12/17 06:14:02;;;;;;;12.95;7.37;;;;;;;9.33;76.29;99895.92;1735511;81;21031;-67
2021/12/17 06:16:33;;;;;;;13.30;7.97;;;;;;;8.72;86.06;99904.48;1735059;81;21158;-68
2021/12/17 06:19:02;;;;;;;13.05;7.55;;;;;;;8.85;87.27;99899.94;1735787;81;21092;-67
2021/12/17 06:21:30;;;;;;;12.75;7.80;;;;;;;8.99;86.32;99888.23;1735453;81;20968;-68
2021/12/17 06:23:58;;;;;;;12.18;7.47;;;;;;;9.06;85.89;99885.71;1735420;81;21561;-68
2021/12/17 06:26:25;;;;;;;13.25;7.45;;;;;;;8.86;85.43;99891.95;1734895;81;21003;-68
2021/12/17 06:28:54;;;;;;;13.88;8.35;;;;;;;8.91;86.60;99894.83;1742576;81;21834;-68
2021/12/17 06:31:23;;;;;;;12.98;7.95;;;;;;;9.05;83.95;99894.98;1731427;81;20995;-69
2021/12/17 06:33:52;;;;;;;14.60;7.75;;;;;;;9.12;84.46;99893.27;1745767;81;20945;-68
2021/12/17 06:36:19;;;;;;;11.85;7.03;;;;;;;9.27;82.20;99903.14;1734748;81;20918;-69
2021/12/17 06:38:47;;;;;;;10.55;7.03;;;;;;;9.36;80.86;99900.76;1743255;80;21144;-69
2021/12/17 06:41:14;;;;;;;13.38;6.80;;;;;;;9.32;78.81;99902.12;1734668;81;21180;-69
2021/12/17 06:43:44;;;;;;;11.68;6.62;;;;;;;9.24;78.20;99895.70;1735382;81;21048;-67
2021/12/17 06:46:19;;;;;;;14.07;6.80;;;;;;;9.34;78.84;99893.62;1735041;81;21020;-68
2021/12/17 06:48:41;;;;;;;12.63;7.05;;;;;;;8.86;84.13;99893.24;1734288;81;21082;-69
2021/12/17 06:57:47;;;;;;;16.17;6.42;;;;;;;8.98;85.93;99884.52;1724492;81;21044;-66
2021/12/17 07:11:36;;;;;;;14.43;7.92;;;;;;;9.54;78.96;99889.12;1739147;80;21526;-67
2021/12/17 07:35:40;;;;;;;11.12;6.30;;;;;;;9.49;86.48;99867.06;1711694;82;21146;-65
2021/12/17 07:40:43;;;;;;;8.43;5.62;;;;;;;9.85;81.92;99862.30;1740251;81;20952;-71
2021/12/17 07:43:13;;;;;;;9.23;5.53;;;;;;;9.81;81.90;99871.48;1740037;80;21123;-61
2021/12/17 07:45:41;;;;;;;12.80;7.28;;;;;;;9.79;82.27;99866.14;1740352;80;21032;-72
2021/12/17 07:48:14;;;;;;;8.20;5.00;;;;;;;9.80;82.81;99871.14;1739170;80;21645;-62
2021/12/17 07:50:43;;;;;;;11.63;7.25;;;;;;;10.11;80.92;99862.17;1738284;81;20945;-63
2021/12/17 07:53:12;;;;;;;9.05;5.95;;;;;;;10.16;80.25;99863.73;1739764;80;21063;-60
2021/12/17 07:55:41;;;;;;;8.38;5.45;;;;;;;10.31;77.99;99859.76;1740437;81;21068;-62
2021/12/17 07:58:10;;;;;;;9.23;6.20;;;;;;;10.23;78.36;99868.49;1740721;81;21614;-62
2021/12/17 08:00:40;;;;;;;10.38;7.20;;;;;;;10.39;76.87;99868.22;1716144;81;20988;-63
2021/12/17 08:03:07;;;;;;;12.98;8.85;;;;;;;10.46;75.46;99864.36;1731488;81;20901;-62
2021/12/17 08:05:49;;;;;;;11.90;7.87;;;;;;;10.28;77.13;99871.35;1725648;83;21105;-62
2021/12/17 08:08:17;;;;;;;13.50;8.65;;;;;;;10.40;74.75;99868.52;1689502;83;21562;-62
2021/12/17 08:10:49;;;;;;;10.98;6.95;;;;;;;10.63;72.68;99855.72;1677644;84;20936;-61
2021/12/17 08:13:23;;;;;;;9.53;5.92;;;;;;;10.60;70.92;99858.70;1721603;83;21171;-70
2021/12/17 08:16:44;;;;;;;15.25;8.83;;;;;;;10.48;70.57;99854.53;1694771;83;21048;-62
2021/12/17 08:18:32;;;;;;;20.60;10.70;;;;;;;10.43;71.70;99855.62;1698605;83;21374;-67
2021/12/17 08:24:17;;;;;;;14.78;8.65;;;;;;;10.32;73.84;99847.83;1714728;82;21121;-60
2021/12/17 08:26:22;;;;;;;10.93;7.10;;;;;;;10.20;75.10;99837.61;1722093;83;21146;-63
2021/12/17 08:29:12;;;;;;;11.20;6.47;;;;;;;10.10;76.74;99827.52;1703167;81;21040;-68
2021/12/17 08:31:24;;;;;;;18.20;9.48;;;;;;;10.15;78.67;99819.13;1713263;83;21525;-60
2021/12/17 08:33:52;;;;;;;11.22;7.03;;;;;;;9.54;87.04;99816.27;1707992;81;21005;-68
2021/12/17 08:36:19;;;;;;;9.10;6.35;;;;;;;9.75;84.85;99812.34;1693803;83;21036;-60
2021/12/17 08:38:53;;;;;;;8.08;5.53;;;;;;;9.88;82.91;99811.63;1704393;83;21157;-67
2021/12/17 08:41:27;;;;;;;10.65;7.22;;;;;;;10.00;81.77;99803.63;1710870;83;21367;-60
2021/12/17 08:43:54;;;;;;;9.48;6.08;;;;;;;9.99;83.15;99802.00;1715966;83;21061;-60
2021/12/17 08:46:22;;;;;;;10.80;6.40;;;;;;;10.05;83.92;99797.34;1721301;83;20962;-60
2021/12/17 08:49:04;;;;;;;9.03;5.58;;;;;;;10.20;82.58;99791.53;1713530;83;21466;-60
2021/12/17 08:51:39;;;;;;;7.33;5.53;;;;;;;9.90;85.63;99788.83;1719617;83;21787;-60
2021/12/17 08:54:08;;;;;;;5.95;4.03;;;;;;;10.06;84.04;99785.92;1697154;83;21016;-61
2021/12/17 08:56:37;;;;;;;7.28;4.47;;;;;;;10.50;80.32;99773.58;1716051;83;21120;-60
2021/12/17 08:59:06;;;;;;;5.97;4.12;;;;;;;10.21;82.43;99774.09;1717602;83;20953;-61
2021/12/17 09:01:38;;;;;;;6.78;4.28;;;;;;;10.47;82.39;99776.06;1720740;83;21006;-61
2021/12/17 09:04:06;;;;;;;5.62;3.70;;;;;;;10.35;82.98;99766.69;1705632;81;21184;-61
2021/12/17 09:06:38;;;;;;;6.25;4.08;;;;;;;10.94;78.10;99764.77;1706902;83;21638;-75
2021/12/17 09:09:05;;;;;;;6.70;4.33;;;;;;;11.00;77.61;99763.70;1705322;83;21492;-68
2021/12/17 09:11:34;;;;;;;6.72;4.90;;;;;;;11.09;77.20;99765.11;1695612;83;21097;-61
2021/12/17 09:14:04;;;;;;;7.90;5.20;;;;;;;11.19;74.54;99762.42;1694345;83;21012;-59
2021/12/17 09:16:36;;;;;;;5.53;3.20;;;;;;;11.31;73.02;99752.20;1704808;83;21143;-73
2021/12/17 09:19:04;;;;;;;5.22;3.05;;;;;;;10.71;77.22;99757.80;1708694;83;20974;-74
2021/12/17 09:21:46;;;;;;;;;;;;;;;10.59;79.24;99767.19;1694731;83;20985;-61
2021/12/17 09:24:19;;;;;;;5.85;3.37;;;;;;;10.80;77.62;99762.36;1697031;83;20436;-72
2021/12/17 09:26:50;;;;;;;3.90;2.40;;;;;;;10.51;79.35;99759.03;1689869;83;21979;-74
2021/12/17 09:29:18;;;;;;;4.22;2.60;;;;;;;10.58;78.88;99759.87;1695485;83;22486;-61
2021/12/17 09:31:46;;;;;;;6.42;3.12;;;;;;;10.68;78.64;99761.62;1667888;84;21054;-60
2021/12/17 09:34:13;;;;;;;6.47;3.62;;;;;;;10.76;76.72;99768.45;1674735;84;21010;-59
2021/12/17 09:36:41;;;;;;;12.13;8.60;;;;;;;10.62;78.70;99765.50;1684996;84;22238;-65
2021/12/17 09:39:08;;;;;;;5.60;3.45;;;;;;;11.02;78.13;99764.29;1674088;84;21474;-60
2021/12/17 09:41:35;;;;;;;8.55;4.83;;;;;;;10.71;79.82;99764.31;1674764;84;21550;-59
2021/12/17 09:44:02;;;;;;;5.80;3.70;;;;;;;10.74;80.73;99763.92;1674497;84;21002;-60
2021/12/17 09:46:32;;;;;;;10.05;6.78;;;;;;;10.74;80.75;99759.22;1675445;84;21562;-73
2021/12/17 09:48:59;;;;;;;10.53;5.70;;;;;;;10.74;80.32;99758.72;1669043;84;21673;-61
2021/12/17 09:51:26;;;;;;;6.55;4.10;;;;;;;10.66;80.13;99758.89;1673394;84;21121;-62
2021/12/17 09:53:53;;;;;;;5.22;3.52;;;;;;;10.48;80.24;99762.02;1669282;84;21811;-61
2021/12/17 09:56:22;;;;;;;6.67;3.27;;;;;;;10.55;78.43;99752.44;1676464;84;21042;-62
2021/12/17 09:58:50;;;;;;;5.30;2.98;;;;;;;10.42;79.97;99747.98;1673765;84;21009;-66
2021/12/17 10:01:18;;;;;;;4.92;3.25;;;;;;;10.43;80.06;99737.86;1674815;84;22466;-62
2021/12/17 10:03:45;;;;;;;5.17;2.83;;;;;;;10.47;81.20;99728.66;1664979;83;21039;-63
2021/12/17 10:06:22;;;;;;;5.35;3.47;;;;;;;10.70;79.25;99724.91;1670123;84;21075;-63
2021/12/17 10:08:49;;;;;;;4.67;2.85;;;;;;;10.69;79.55;99722.81;1666788;84;21050;-65
2021/12/17 10:11:18;;;;;;;8.33;5.12;;;;;;;10.67;81.08;99724.80;1668099;84;21517;-62
2021/12/17 10:13:47;;;;;;;5.53;3.60;;;;;;;10.96;78.63;99717.15;1673289;84;20907;-66
2021/12/17 10:16:14;;;;;;;11.38;6.00;;;;;;;10.80;79.89;99711.02;1667413;84;21627;-63
2021/12/17 10:18:46;;;;;;;4.95;3.20;;;;;;;10.79;77.69;99704.17;1617751;84;21006;-78
2021/12/17 10:21:24;;;;;;;5.60;3.17;;;;;;;11.03;75.62;99696.80;1668175;84;21266;-63
2021/12/17 10:23:53;;;;;;;8.33;4.60;;;;;;;11.01;74.87;99687.06;1667672;84;21097;-62
2021/12/17 10:26:22;;;;;;;6.60;3.98;;;;;;;10.87;76.75;99691.45;1671065;84;21028;-77
2021/12/17 10:28:56;;;;;;;5.42;2.60;;;;;;;10.93;73.57;99695.38;1667537;84;21587;-63
2021/12/17 10:31:24;;;;;;;4.42;2.52;;;;;;;10.89;73.77;99690.25;1668420;84;22415;-60
2021/12/17 10:33:53;;;;;;;6.28;2.95;;;;;;;10.80;73.78;99691.97;1668090;84;21595;-61
2021/12/17 10:36:43;;;;;;;5.67;2.98;;;;;;;10.68;76.77;99697.75;1666838;84;21512;-73
2021/12/17 10:39:28;;;;;;;5.05;3.10;;;;;;;10.75;77.06;99694.34;1666716;84;21567;-64
2021/12/17 10:41:55;;;;;;;6.15;3.87;;;;;;;10.78;76.81;99692.65;1672046;84;21603;-66
2021/12/17 10:44:23;;;;;;;9.93;4.60;;;;;;;10.87;77.21;99682.32;1725099;81;21144;-62
2021/12/17 10:47:15;;;;;;;8.13;3.95;;;;;;;11.02;75.76;99682.94;1734167;81;21068;-64
2021/12/17 10:49:37;;;;;;;8.50;5.08;;;;;;;11.03;74.56;99678.55;1723171;81;20978;-78
2021/12/17 10:52:14;;;;;;;10.15;4.00;;;;;;;10.80;75.32;99675.81;1671895;83;21024;-66
2021/12/17 10:54:36;;;;;;;8.73;3.98;;;;;;;11.12;74.29;99681.25;1724417;81;20994;-64
2021/12/17 10:57:07;;;;;;;6.45;3.45;;;;;;;11.04;72.96;99678.34;1723477;81;21146;-62
2021/12/17 10:59:35;;;;;;;7.25;2.75;;;;;;;11.09;73.00;99677.73;1724566;81;20964;-62
2021/12/17 11:02:07;;;;;;;5.87;2.80;;;;;;;10.89;73.06;99675.91;1724430;81;21039;-62
2021/12/17 11:04:43;;;;;;;6.87;3.75;;;;;;;10.88;72.13;99673.52;1725450;81;20986;-61
2021/12/17 11:07:13;;;;;;;6.97;3.70;;;;;;;10.54;73.84;99667.44;1724688;81;21007;-65
2021/12/17 11:09:50;;;;;;;9.25;5.17;;;;;;;10.59;74.04;99663.73;1725227;81;21136;-70
2021/12/17 11:12:34;;;;;;;9.00;4.30;;;;;;;10.69;72.99;99658.16;1725133;81;21684;-61
2021/12/17 11:15:24;;;;;;;4.40;2.50;;;;;;;10.81;71.13;99663.08;1716277;81;20992;-61
2021/12/17 11:17:58;;;;;;;6.17;3.17;;;;;;;10.73;70.72;99660.66;1725164;81;20990;-64
2021/12/17 11:20:32;;;;;;;4.28;2.40;;;;;;;10.87;70.81;99666.20;1724658;81;21053;-76
2021/12/17 11:23:05;;;;;;;5.92;3.12;;;;;;;11.19;69.11;99666.41;1724499;81;21700;-75
2021/12/17 11:25:30;;;;;;;;;;;;;;;11.04;69.03;99665.80;1727801;81;21077;-67
2021/12/17 11:28:17;;;;;;;6.22;4.42;;;;;;;10.90;70.24;99664.98;1723232;81;20131;-68
2021/12/17 11:30:46;;;;;;;12.93;5.05;;;;;;;9.28;83.88;99666.80;1746401;80;21447;-66
2021/12/17 11:33:12;;;;;;;5.55;3.30;;;;;;;8.91;96.74;99665.30;1752127;80;20935;-62
2021/12/17 11:35:44;;;;;;;6.45;4.08;;;;;;;8.97;98.04;99666.63;1711417;82;21009;-61
2021/12/17 11:38:38;;;;;;;9.28;4.92;;;;;;;9.08;98.09;99660.63;1680529;85;20994;-74
2021/12/17 11:41:16;;;;;;;9.53;5.05;;;;;;;9.09;99.51;99658.32;1710688;82;20943;-62
2021/12/17 11:43:54;;;;;;;15.88;9.88;;;;;;;8.75;100.00;99663.25;1698188;84;21502;-71
2021/12/17 11:46:27;;;;;;;12.03;7.65;;;;;;;8.72;100.00;99661.52;1715272;83;20999;-67
2021/12/17 11:49:09;;;;;;;9.58;5.95;;;;;;;8.80;100.00;99657.49;1714100;83;21107;-65
2021/12/17 11:51:36;;;;;;;7.37;4.22;;;;;;;9.05;100.00;99658.39;1715383;83;20928;-66
2021/12/17 11:54:09;;;;;;;9.60;6.12;;;;;;;8.95;100.00;99649.13;1716234;83;20932;-64
2021/12/17 11:56:41;;;;;;;9.48;5.60;;;;;;;9.07;100.00;99652.52;1716087;83;20940;-65
2021/12/17 11:59:31;;;;;;;6.47;3.72;;;;;;;9.00;100.00;99651.16;1716077;83;20975;-61
2021/12/17 12:02:05;;;;;;;9.78;6.10;;;;;;;9.12;99.69;99643.66;1711984;83;20946;-76
2021/12/17 12:04:39;;;;;;;10.85;5.80;;;;;;;9.20;97.46;99649.51;1715414;83;21074;-61
2021/12/17 12:07:20;;;;;;;10.18;5.90;;;;;;;9.45;94.09;99651.20;1714889;81;21054;-62
2021/12/17 12:10:16;;;;;;;9.10;5.28;;;;;;;9.60;92.31;99652.89;1702264;83;21079;-62
2021/12/17 12:12:51;;;;;;;7.97;4.83;;;;;;;9.35;93.12;99648.12;1750258;81;21002;-62
2021/12/17 12:15:30;;;;;;;6.83;4.30;;;;;;;9.72;90.35;99652.66;1710444;82;21097;-68
2021/12/17 12:18:10;;;;;;;8.25;5.05;;;;;;;8.99;96.27;99649.06;1703411;82;21006;-70
2021/12/17 12:20:51;;;;;;;10.15;6.33;;;;;;;9.58;93.70;99653.56;1680274;84;21117;-62
2021/12/17 12:23:32;;;;;;;10.63;7.55;;;;;;;9.45;91.24;99649.89;1709885;83;21128;-65
2021/12/17 12:26:12;;;;;;;10.23;6.87;;;;;;;9.46;91.29;99654.09;1712964;83;21570;-61
2021/12/17 12:28:52;;;;;;;9.05;6.33;;;;;;;9.76;88.09;99651.27;1710051;82;21159;-72
2021/12/17 12:31:32;;;;;;;8.53;5.75;;;;;;;9.19;92.66;99655.71;1713747;83;21163;-63
2021/12/17 12:34:06;;;;;;;62.70;33.30;;;;;;;9.25;95.26;99652.88;1675520;83;21117;-64
2021/12/17 12:37:03;;;;;;;58.25;36.85;;;;;;;9.46;92.64;99650.70;1700261;82;21059;-63
2021/12/17 12:39:55;;;;;;;37.88;22.35;;;;;;;9.96;88.29;99646.98;1715518;81;21563;-64
2021/12/17 12:42:29;;;;;;;194.87;84.22;;;;;;;10.12;83.34;99647.65;1688581;83;22726;-63
2021/12/17 12:45:07;;;;;;;211.43;83.12;;;;;;;8.67;93.19;99648.26;1718383;81;21062;-63
2021/12/17 12:47:41;;;;;;;51.98;27.90;;;;;;;8.34;100.00;99657.80;1711976;81;21053;-67
2021/12/17 12:50:11;;;;;;;24.52;13.15;;;;;;;8.32;100.00;99658.46;1684305;82;21154;-65
2021/12/17 12:52:58;;;;;;;454.18;224.07;;;;;;;8.30;100.00;99660.45;1702833;81;21122;-65
2021/12/17 12:55:37;;;;;;;134.00;62.05;;;;;;;8.17;100.00;99658.98;1709620;82;21550;-71
2021/12/17 12:58:08;;;;;;;219.97;102.27;;;;;;;8.37;100.00;99652.71;1714583;81;21022;-66
2021/12/17 13:00:49;;;;;;;275.35;135.12;;;;;;;8.39;100.00;99652.88;1726406;81;22132;-65
2021/12/17 13:03:30;;;;;;;11.60;6.97;;;;;;;8.66;100.00;99655.25;1688986;83;22398;-68
2021/12/17 13:06:01;;;;;;;60.23;24.77;;;;;;;8.77;100.00;99651.36;1706445;83;21033;-64
2021/12/17 13:08:31;;;;;;;18.48;9.35;;;;;;;8.86;100.00;99652.03;1690603;83;21100;-69
2021/12/17 13:11:04;;;;;;;21.57;10.48;;;;;;;8.94;98.78;99648.83;1691693;84;21125;-72
2021/12/17 13:13:37;;;;;;;30.43;14.63;;;;;;;9.11;96.74;99646.75;1675271;83;21942;-63
2021/12/17 13:16:12;;;;;;;206.07;82.50;;;;;;;8.54;100.00;99645.05;1694648;82;20923;-66
2021/12/17 13:21:32;;;;;;;10.95;5.12;;;;;;;8.31;100.00;99651.67;1744613;81;21319;-65
2021/12/17 13:23:54;;;;;;;12.50;8.18;;;;;;;8.15;100.00;99650.09;1686156;83;20867;-64
2021/12/17 13:26:23;;;;;;;;;;;;;;;7.82;100.00;99655.36;1709280;81;21519;-66
2021/12/17 13:28:59;;;;;;;9.70;4.87;;;;;;;7.92;100.00;99646.33;1715821;81;20265;-65
2021/12/17 13:31:36;;;;;;;7.90;4.95;;;;;;;7.90;100.00;99641.80;1730390;81;21101;-67
2021/12/17 13:34:14;;;;;;;11.83;5.95;;;;;;;8.01;100.00;99648.31;1709889;82;21116;-69
2021/12/17 13:37:14;;;;;;;9.60;6.55;;;;;;;8.20;100.00;99641.75;1712403;81;21132;-66
2021/12/17 13:39:55;;;;;;;9.20;6.08;;;;;;;8.20;100.00;99648.24;1681365;84;22167;-64
2021/12/17 13:42:30;;;;;;;12.25;8.85;;;;;;;8.11;100.00;99644.16;1692096;82;20948;-65
2021/12/17 13:45:07;;;;;;;11.40;7.85;;;;;;;8.04;100.00;99644.88;1712191;83;21444;-66
2021/12/17 13:47:42;;;;;;;11.45;7.00;;;;;;;8.19;100.00;99641.45;1710959;83;21154;-65
2021/12/17 13:50:28;;;;;;;11.60;6.50;;;;;;;8.49;100.00;99646.91;1710926;83;20906;-67
2021/12/17 13:53:11;;;;;;;11.97;8.30;;;;;;;8.21;100.00;99642.05;1709913;83;21022;-67
2021/12/17 13:55:45;;;;;;;9.00;6.33;;;;;;;7.88;100.00;99643.78;1711015;83;21059;-64
2021/12/17 13:58:19;;;;;;;11.18;6.47;;;;;;;8.43;100.00;99639.84;1711802;81;21030;-65
2021/12/17 14:00:49;;;;;;;10.18;6.75;;;;;;;8.69;100.00;99641.89;1683364;83;21647;-65
2021/12/17 14:03:16;;;;;;;10.23;7.35;;;;;;;8.26;100.00;99641.03;1684667;83;21027;-67
2021/12/17 14:05:55;;;;;;;11.03;6.67;;;;;;;7.95;100.00;99640.75;1714332;83;21070;-64
2021/12/17 14:08:20;;;;;;;8.48;6.20;;;;;;;7.76;100.00;99646.49;1683597;83;21048;-70
2021/12/17 14:10:48;;;;;;;12.60;8.30;;;;;;;7.78;100.00;99639.34;1675315;83;21105;-65
2021/12/17 14:13:22;;;;;;;9.50;6.70;;;;;;;7.65;100.00;99636.56;1699605;82;21058;-66
2021/12/17 14:15:50;;;;;;;9.65;6.40;;;;;;;7.59;100.00;99642.48;1700796;84;21045;-66
2021/12/17 14:18:21;;;;;;;9.85;6.15;;;;;;;7.31;100.00;99636.58;1699466;82;21077;-66
2021/12/17 14:20:59;;;;;;;10.03;5.90;;;;;;;7.06;100.00;99637.31;1689182;84;20990;-64
2021/12/17 14:23:28;;;;;;;9.13;5.50;;;;;;;7.09;100.00;99638.76;1698758;84;21082;-64
2021/12/17 14:26:00;;;;;;;7.33;5.40;;;;;;;6.80;100.00;99639.77;1699180;82;21177;-65
2021/12/17 14:28:31;;;;;;;5.87;3.60;;;;;;;6.83;100.00;99636.05;1700905;82;20959;-69
2021/12/17 14:31:12;;;;;;;7.17;4.28;;;;;;;6.55;100.00;99633.15;1703064;83;21620;-63
2021/12/17 14:33:51;;;;;;;7.37;4.37;;;;;;;6.63;100.00;99640.89;1702059;84;21014;-64
2021/12/17 14:36:22;;;;;;;5.97;4.45;;;;;;;6.64;100.00;99633.92;1675172;84;21002;-68
2021/12/17 14:38:59;;;;;;;8.05;5.08;;;;;;;6.78;100.00;99629.27;1734743;82;21794;-65
2021/12/17 14:41:33;;;;;;;9.13;5.15;;;;;;;6.48;100.00;99636.94;1735285;82;20986;-64